createdAt,value
2024-05-09T00:03:31.561Z,100.00
2024-05-09T00:08:37.450Z,100.00
2024-05-09T00:13:43.117Z,100.00
2024-05-09T00:18:51.577Z,100.00
2024-05-09T00:23:57.494Z,100.00
2024-05-09T00:29:03.036Z,100.00
2024-05-09T00:34:11.613Z,100.00
2024-05-09T00:39:17.631Z,100.00
2024-05-09T00:44:23.355Z,100.00
2024-05-09T00:49:32.150Z,100.00
2024-05-09T00:54:37.888Z,100.00
2024-05-09T00:59:44.070Z,100.00
2024-05-09T01:04:53.529Z,100.00
2024-05-09T01:09:59.341Z,100.00
2024-05-09T01:15:04.849Z,100.00
2024-05-09T01:20:20.104Z,100.00
2024-05-09T01:25:35.653Z,100.00
2024-05-09T01:30:41.479Z,100.00
2024-05-09T01:35:47.135Z,100.00
2024-05-09T01:40:55.526Z,100.00
2024-05-09T01:46:01.189Z,100.00
2024-05-09T01:51:06.937Z,100.00
2024-05-09T01:56:15.771Z,100.00
2024-05-09T02:01:21.465Z,100.00
2024-05-09T02:06:27.127Z,100.00
2024-05-09T02:11:36.089Z,100.00
2024-05-09T02:16:41.717Z,100.00
2024-05-09T02:21:47.236Z,100.00
2024-05-09T02:26:55.575Z,100.00
2024-05-09T02:32:01.370Z,100.00
2024-05-09T02:37:07.214Z,100.00
2024-05-09T02:42:15.452Z,100.00
2024-05-09T02:47:21.215Z,100.00
2024-05-09T02:52:27.006Z,100.00
2024-05-09T02:57:35.293Z,100.00
2024-05-09T03:02:40.977Z,100.00
2024-05-09T03:07:46.760Z,100.00
2024-05-09T03:12:55.051Z,100.00
2024-05-09T03:18:01.346Z,100.00
2024-05-09T03:23:08.470Z,100.00
2024-05-09T03:28:17.682Z,100.00
2024-05-09T03:33:23.842Z,100.00
2024-05-09T03:38:29.642Z,100.00
2024-05-09T03:43:37.889Z,100.00
2024-05-09T03:48:43.470Z,100.00
2024-05-09T03:53:49.194Z,100.00
2024-05-09T03:58:58.297Z,100.00
2024-05-09T04:04:04.009Z,100.00
2024-05-09T04:09:09.671Z,100.00
2024-05-09T04:14:17.985Z,100.00
2024-05-09T04:19:23.686Z,100.00
2024-05-09T04:24:29.431Z,100.00
2024-05-09T04:29:38.081Z,100.00
2024-05-09T04:34:43.879Z,100.00
2024-05-09T04:39:49.569Z,100.00
2024-05-09T04:44:58.797Z,100.00
2024-05-09T04:50:05.545Z,100.00
2024-05-09T04:55:11.368Z,100.00
2024-05-09T05:00:28.461Z,100.00
2024-05-09T05:05:42.074Z,100.00
2024-05-09T05:10:48.884Z,100.00
2024-05-09T05:15:58.624Z,100.00
2024-05-09T05:21:04.805Z,100.00
2024-05-09T05:26:10.509Z,100.00
2024-05-09T05:31:18.972Z,100.00
2024-05-09T05:36:24.655Z,94.92
2024-05-09T05:41:30.351Z,96.10
2024-05-09T05:46:38.569Z,87.38
2024-05-09T05:51:44.154Z,94.95
2024-05-09T05:56:49.829Z,97.08
2024-05-09T06:01:58.267Z,95.38
2024-05-09T06:07:04.215Z,88.36
2024-05-09T06:12:10.483Z,78.18
2024-05-09T06:17:19.183Z,77.67
2024-05-09T06:22:25.157Z,76.10
2024-05-09T06:27:30.767Z,72.92
2024-05-09T06:32:39.167Z,70.04
2024-05-09T06:37:45.158Z,68.73
2024-05-09T06:42:50.849Z,70.45
2024-05-09T06:47:59.249Z,67.38
2024-05-09T06:53:05.312Z,64.95
2024-05-09T06:58:12.053Z,66.14
2024-05-09T07:03:20.630Z,62.38
2024-05-09T07:08:26.461Z,64.27
2024-05-09T07:13:32.586Z,62.10
2024-05-09T07:18:41.202Z,62.06
2024-05-09T07:23:47.532Z,64.41
2024-05-09T07:28:53.485Z,58.12
2024-05-09T07:34:02.340Z,58.50
2024-05-09T07:39:08.463Z,53.84
2024-05-09T07:44:14.290Z,53.58
2024-05-09T07:54:31.735Z,53.71
2024-05-09T07:59:38.012Z,51.58
2024-05-09T08:04:47.102Z,50.14
2024-05-09T08:09:52.874Z,49.66
2024-05-09T08:14:58.451Z,50.07
2024-05-09T08:20:07.645Z,52.03
2024-05-09T08:25:14.566Z,50.88
2024-05-09T08:30:25.409Z,51.08
2024-05-09T08:35:41.780Z,48.23
2024-05-09T08:40:47.654Z,47.17
2024-05-09T08:45:54.210Z,44.48
2024-05-09T08:51:02.609Z,44.89
2024-05-09T08:56:11.002Z,46.81
2024-05-09T09:01:18.270Z,46.71
2024-05-09T09:06:27.492Z,46.07
2024-05-09T09:11:33.785Z,46.54
2024-05-09T09:16:40.290Z,46.40
2024-05-09T09:21:48.726Z,46.06
2024-05-09T09:26:54.498Z,45.30
2024-05-09T09:32:04.078Z,46.11
2024-05-09T09:37:14.072Z,47.56
2024-05-09T09:42:20.603Z,46.74
2024-05-09T09:47:26.909Z,46.56
2024-05-09T09:52:35.543Z,43.34
2024-05-09T09:57:42.739Z,45.50
2024-05-09T10:02:48.365Z,46.45
2024-05-09T10:07:57.035Z,45.13
2024-05-09T10:13:03.048Z,44.01
2024-05-09T10:18:09.593Z,44.98
2024-05-09T10:23:32.445Z,46.14
2024-05-09T10:28:39.466Z,45.24
2024-05-09T10:33:50.860Z,42.33
2024-05-09T10:39:00.375Z,43.55
2024-05-09T10:44:06.137Z,44.71
2024-05-09T10:49:12.538Z,43.88
2024-05-09T10:54:21.044Z,46.28
2024-05-09T10:59:27.071Z,43.53
2024-05-09T11:04:33.398Z,43.58
2024-05-09T11:09:42.720Z,42.82
2024-05-09T11:14:56.526Z,43.62
2024-05-09T11:20:08.123Z,41.08
2024-05-09T11:25:19.355Z,43.48
2024-05-09T11:30:31.587Z,45.30
2024-05-09T11:35:37.812Z,44.01
2024-05-09T11:40:46.285Z,43.37
2024-05-09T11:45:52.228Z,42.86
2024-05-09T11:50:58.150Z,43.85
2024-05-09T11:56:06.669Z,42.91
2024-05-09T12:01:12.534Z,44.10
2024-05-09T12:06:18.520Z,45.29
2024-05-09T12:11:27.351Z,43.46
2024-05-09T12:16:33.382Z,40.72
2024-05-09T12:21:38.979Z,44.15
2024-05-09T12:26:47.411Z,44.74
2024-05-09T12:31:53.547Z,43.40
2024-05-09T12:36:59.322Z,42.73
2024-05-09T12:42:09.750Z,44.52
2024-05-09T12:47:16.934Z,45.00
2024-05-09T12:52:22.822Z,44.92
2024-05-09T12:57:31.324Z,43.84
2024-05-09T13:02:37.093Z,42.57
2024-05-09T13:07:43.490Z,40.85
2024-05-09T13:12:52.143Z,40.41
2024-05-09T13:18:00.455Z,41.94
2024-05-09T13:23:09.885Z,41.85
2024-05-09T13:28:18.286Z,41.35
2024-05-09T13:33:24.108Z,40.56
2024-05-09T13:38:29.917Z,42.02
2024-05-09T13:43:39.004Z,41.71
2024-05-09T13:48:44.785Z,43.28
2024-05-09T13:53:50.363Z,45.00
2024-05-09T13:58:58.486Z,42.97
2024-05-09T14:04:05.282Z,43.75
2024-05-09T14:09:11.893Z,44.49
2024-05-09T14:14:20.205Z,43.99
2024-05-09T14:19:25.927Z,42.42
2024-05-09T14:24:31.749Z,40.68
2024-05-09T14:29:40.086Z,41.21
2024-05-09T14:34:45.846Z,41.36
2024-05-09T14:39:51.548Z,41.84
2024-05-09T14:45:02.132Z,44.11
2024-05-09T14:50:13.856Z,42.32
2024-05-09T14:55:24.883Z,41.79
2024-05-09T15:00:35.802Z,41.16
2024-05-09T15:05:43.334Z,41.84
2024-05-09T15:10:49.960Z,41.67
2024-05-09T15:15:58.779Z,40.76
2024-05-09T15:21:04.398Z,41.42
2024-05-09T15:26:10.354Z,41.31
2024-05-09T15:31:18.915Z,41.43
2024-05-09T15:36:24.542Z,40.28
2024-05-09T15:41:30.220Z,41.00
2024-05-09T15:46:38.575Z,40.81
2024-05-09T15:51:44.954Z,40.09
2024-05-09T15:56:51.376Z,40.12
2024-05-09T16:01:59.963Z,40.03
2024-05-09T16:07:06.009Z,40.85
2024-05-09T16:12:11.952Z,41.31
2024-05-09T16:17:21.186Z,41.94
2024-05-09T16:22:27.264Z,42.55
2024-05-09T16:27:33.225Z,42.52
2024-05-09T16:32:44.284Z,43.48
2024-05-09T16:37:50.516Z,42.22
2024-05-09T16:42:56.407Z,44.41
2024-05-09T16:48:05.376Z,45.19
2024-05-09T16:53:11.299Z,46.05
2024-05-09T16:58:17.338Z,44.68
2024-05-09T17:03:26.546Z,44.04
2024-05-09T17:08:32.463Z,45.31
2024-05-09T17:13:39.578Z,46.49
2024-05-09T17:18:48.915Z,49.95
2024-05-09T17:23:55.798Z,54.03
2024-05-09T17:29:01.732Z,60.23
2024-05-09T17:34:10.191Z,61.80
2024-05-09T17:39:16.382Z,64.78
2024-05-09T17:44:21.920Z,64.91
2024-05-09T17:49:30.354Z,65.67
2024-05-09T17:54:36.458Z,66.58
2024-05-09T17:59:42.148Z,77.47
2024-05-09T18:04:50.617Z,81.72
2024-05-09T18:09:56.299Z,80.98
2024-05-09T18:15:02.573Z,82.15
2024-05-09T18:20:19.690Z,84.62
2024-05-09T18:25:35.829Z,86.75
2024-05-09T18:30:41.937Z,89.78
2024-05-09T18:35:50.171Z,94.64
2024-05-09T18:40:56.021Z,93.21
2024-05-09T18:46:01.760Z,97.37
2024-05-09T18:51:10.283Z,96.49
2024-05-09T18:56:16.210Z,98.05
2024-05-09T19:01:22.148Z,100.00
2024-05-09T19:06:30.609Z,100.00
2024-05-09T19:11:39.918Z,100.00
2024-05-09T19:16:47.054Z,100.00
2024-05-09T19:21:55.221Z,100.00
2024-05-09T19:27:02.050Z,100.00
2024-05-09T19:32:08.454Z,100.00
2024-05-09T19:37:17.024Z,100.00
2024-05-09T19:42:22.830Z,100.00
2024-05-09T19:47:30.050Z,100.00
2024-05-09T19:52:38.625Z,100.00
2024-05-09T19:57:44.661Z,100.00
2024-05-09T20:02:50.631Z,100.00
2024-05-09T20:07:59.138Z,100.00
2024-05-09T20:13:06.040Z,100.00
2024-05-09T20:18:12.869Z,100.00
2024-05-09T20:23:21.319Z,100.00
2024-05-09T20:28:27.515Z,100.00
2024-05-09T20:33:33.526Z,100.00
2024-05-09T20:38:41.932Z,100.00
2024-05-09T20:43:47.799Z,100.00
2024-05-09T20:48:53.674Z,100.00
2024-05-09T20:54:02.362Z,100.00
2024-05-09T20:59:08.128Z,100.00
2024-05-09T21:04:13.982Z,100.00
2024-05-09T21:09:25.707Z,100.00
2024-05-09T21:14:31.523Z,100.00
2024-05-09T21:19:37.460Z,100.00
2024-05-09T21:24:45.849Z,100.00
2024-05-09T21:29:51.707Z,100.00
2024-05-09T21:34:57.371Z,100.00
2024-05-09T21:40:11.281Z,100.00
2024-05-09T21:45:19.472Z,100.00
2024-05-09T21:50:32.303Z,100.00
2024-05-09T21:55:47.791Z,100.00
2024-05-09T22:00:53.557Z,100.00
2024-05-09T22:05:59.649Z,100.00
2024-05-09T22:11:08.394Z,100.00
2024-05-09T22:16:14.088Z,100.00
2024-05-09T22:21:19.894Z,100.00
2024-05-09T22:26:28.241Z,100.00
2024-05-09T22:31:34.020Z,100.00
2024-05-09T22:36:39.770Z,100.00
2024-05-09T22:41:48.386Z,100.00
2024-05-09T22:46:54.086Z,100.00
2024-05-09T22:51:59.761Z,100.00
2024-05-09T22:57:08.535Z,100.00
2024-05-09T23:02:14.678Z,100.00
2024-05-09T23:07:20.653Z,100.00
2024-05-09T23:12:28.927Z,100.00
2024-05-09T23:17:34.766Z,100.00
2024-05-09T23:22:40.544Z,100.00
2024-05-09T23:27:49.006Z,100.00
2024-05-09T23:32:54.794Z,100.00
2024-05-09T23:38:00.583Z,100.00
2024-05-09T23:43:09.316Z,100.00
2024-05-09T23:48:15.255Z,100.00
2024-05-09T23:53:20.980Z,100.00
2024-05-09T23:58:29.502Z,100.00
